Time;durP1;ratioP1;P1;durP2;ratioP2;P2;SDS_P1;SDS_P2;PMS_P1;PMS_P2;Temp;Humidity;BMP_temperature;BMP_pressure;BME280_temperature;BME280_humidity;BME280_pressure;Samples;Min_cycle;Max_cycle;Signal;HPM_P1;HPM_P2
2023/04/30 00:01:43;;;;;;;12.30;10.90;;;;;;;9.82;90.31;96498.48;109240;1272;22816;-84
2023/04/30 00:04:14;;;;;;;11.40;9.50;;;;;;;9.83;90.59;96496.98;109133;1273;22627;-84
2023/04/30 00:06:45;;;;;;;11.30;9.60;;;;;;;9.81;90.86;96497.60;109164;1272;25415;-84
2023/04/30 00:09:16;;;;;;;11.30;9.10;;;;;;;9.77;91.31;96497.79;109137;1273;25597;-84
2023/04/30 00:11:47;;;;;;;10.00;8.90;;;;;;;9.75;91.56;96496.91;109133;1273;22468;-84
2023/04/30 00:14:18;;;;;;;11.30;10.00;;;;;;;9.73;91.95;96500.95;109154;1250;22518;-84
2023/04/30 00:16:49;;;;;;;13.60;11.00;;;;;;;9.71;92.57;96499.63;109071;1273;22529;-84
2023/04/30 00:19:20;;;;;;;11.90;10.70;;;;;;;9.69;92.66;96496.34;109125;1273;25425;-84
2023/04/30 00:21:51;;;;;;;12.00;10.80;;;;;;;9.70;92.98;96499.63;109119;1267;22539;-84
2023/04/30 00:24:22;;;;;;;11.50;10.30;;;;;;;9.69;93.21;96499.73;109101;1267;22556;-84
2023/04/30 00:26:53;;;;;;;12.80;11.40;;;;;;;9.69;93.34;96500.21;109120;1273;24219;-84
2023/04/30 00:29:24;;;;;;;12.70;11.40;;;;;;;9.69;93.52;96498.58;109070;1272;22576;-84
2023/04/30 00:31:55;;;;;;;13.80;11.70;;;;;;;9.70;93.39;96497.56;109083;1273;22663;-84
2023/04/30 00:34:26;;;;;;;12.40;11.00;;;;;;;9.74;93.39;96498.14;109180;1272;22514;-84
2023/04/30 00:36:57;;;;;;;12.60;11.10;;;;;;;9.79;93.48;96501.38;109199;1266;22549;-84
2023/04/30 00:39:28;;;;;;;13.30;11.30;;;;;;;9.82;93.48;96499.39;109104;1273;25525;-84
2023/04/30 00:41:59;;;;;;;12.70;11.40;;;;;;;9.83;93.49;96502.13;109144;1273;24089;-84
2023/04/30 00:44:30;;;;;;;12.40;11.10;;;;;;;9.84;93.48;96500.84;108996;1272;22583;-84
2023/04/30 00:47:02;;;;;;;14.50;13.00;;;;;;;9.87;93.51;96504.61;109126;1273;22550;-84
2023/04/30 00:49:33;;;;;;;11.70;10.40;;;;;;;9.88;93.92;96505.83;109080;1273;22958;-84
2023/04/30 00:52:05;;;;;;;14.10;12.70;;;;;;;9.85;94.12;96506.20;109086;1266;23863;-84
2023/04/30 00:54:36;;;;;;;14.00;12.50;;;;;;;9.86;94.07;96505.05;109128;1273;22693;-83
2023/04/30 00:57:12;;;;;;;10.50;9.10;;;;;;;9.83;94.49;96504.04;109105;1273;22541;-84
2023/04/30 00:59:43;;;;;;;13.00;11.70;;;;;;;9.79;95.09;96500.20;109015;1273;25431;-84
2023/04/30 01:02:15;;;;;;;11.20;9.90;;;;;;;9.78;95.80;96499.90;109110;1273;22467;-84
2023/04/30 01:04:47;;;;;;;13.60;12.20;;;;;;;9.77;96.71;96503.19;109099;1273;22558;-83
2023/04/30 01:07:18;;;;;;;14.30;12.80;;;;;;;9.78;97.44;96502.34;109151;1265;22532;-83
2023/04/30 01:09:49;;;;;;;13.70;12.30;;;;;;;9.79;97.42;96500.68;109080;1273;22510;-84
2023/04/30 01:12:29;;;;;;;12.50;11.10;;;;;;;9.81;97.52;96499.98;109100;1273;23762;-84
2023/04/30 01:15:08;;;;;;;13.00;11.70;;;;;;;9.83;98.41;96494.19;109131;1273;22661;-84
2023/04/30 01:17:46;;;;;;;14.60;13.10;;;;;;;9.84;98.90;96497.89;109118;1272;25402;-84
2023/04/30 01:20:19;;;;;;;14.60;12.20;;;;;;;9.85;98.96;96497.84;109110;1273;22532;-84
2023/04/30 01:22:56;;;;;;;15.20;13.70;;;;;;;9.85;99.67;96502.34;109142;1267;22544;-84
2023/04/30 01:25:44;;;;;;;14.20;12.70;;;;;;;9.85;99.82;96502.55;109057;1272;22521;-84
2023/04/30 01:28:18;;;;;;;15.60;14.10;;;;;;;9.85;100.00;96502.86;109074;1267;24284;-84
2023/04/30 01:30:50;;;;;;;13.40;11.00;;;;;;;9.85;100.00;96500.27;109126;1249;22529;-84
2023/04/30 01:33:21;;;;;;;13.00;11.60;;;;;;;9.85;100.00;96502.02;109107;1273;22506;-84
2023/04/30 01:36:05;;;;;;;12.90;11.00;;;;;;;9.84;100.00;96507.00;109089;1272;25261;-84
2023/04/30 01:38:49;;;;;;;14.50;12.90;;;;;;;9.83;100.00;96510.61;109042;1266;23731;-84
2023/04/30 01:41:32;;;;;;;13.50;11.40;;;;;;;9.82;100.00;96511.36;109127;1273;22627;-84
2023/04/30 01:44:25;;;;;;;14.30;12.90;;;;;;;9.82;100.00;96515.85;109132;1273;22557;-84
2023/04/30 01:47:04;;;;;;;14.90;13.30;;;;;;;9.82;100.00;96510.39;109117;1250;23354;-84
2023/04/30 01:49:42;;;;;;;;;;;;;;;9.83;100.00;96510.39;109160;1273;22463;-84
2023/04/30 01:52:19;;;;;;;12.20;10.20;;;;;;;9.85;100.00;96506.78;109109;1270;22464;-84
2023/04/30 01:54:58;;;;;;;12.40;11.10;;;;;;;9.87;100.00;96509.06;109132;1266;22497;-84
2023/04/30 01:57:32;;;;;;;14.30;12.80;;;;;;;9.88;100.00;96511.17;109091;1273;25412;-84
2023/04/30 02:00:07;;;;;;;13.90;10.50;;;;;;;9.88;100.00;96507.99;109143;1273;25457;-84
2023/04/30 02:02:38;;;;;;;13.90;12.50;;;;;;;9.87;100.00;96511.34;109155;1273;22545;-84
2023/04/30 02:05:10;;;;;;;13.60;12.20;;;;;;;9.88;100.00;96512.08;109099;1272;22535;-84
2023/04/30 02:07:45;;;;;;;15.10;13.60;;;;;;;9.89;100.00;96515.24;109122;1268;22716;-84
2023/04/30 02:10:17;;;;;;;15.30;13.80;;;;;;;9.89;100.00;96514.71;109088;1265;23842;-84
2023/04/30 02:12:48;;;;;;;16.90;15.30;;;;;;;9.88;100.00;96516.46;109141;1273;22481;-84
2023/04/30 02:15:19;;;;;;;16.60;14.90;;;;;;;9.88;100.00;96516.37;109110;1267;22738;-84
2023/04/30 02:17:50;;;;;;;17.20;15.40;;;;;;;9.88;100.00;96517.11;109098;1268;22520;-84
2023/04/30 02:20:20;;;;;;;16.60;14.90;;;;;;;9.88;100.00;96517.21;109086;1273;22514;-84
2023/04/30 02:22:53;;;;;;;17.80;15.90;;;;;;;9.85;100.00;96515.84;109152;1266;22510;-84
2023/04/30 02:25:24;;;;;;;16.50;14.80;;;;;;;9.81;100.00;96520.27;109088;1272;22478;-84
2023/04/30 02:27:54;;;;;;;15.50;13.80;;;;;;;9.80;100.00;96520.80;109144;1266;22593;-83
2023/04/30 02:30:26;;;;;;;17.70;15.70;;;;;;;9.77;100.00;96518.29;109108;1273;24363;-84
2023/04/30 02:32:56;;;;;;;15.50;13.70;;;;;;;9.74;100.00;96516.40;109150;1272;22518;-84
2023/04/30 02:35:27;;;;;;;15.40;11.60;;;;;;;9.71;100.00;96519.73;109169;1265;22479;-84
2023/04/30 02:37:58;;;;;;;17.30;13.60;;;;;;;9.68;100.00;96519.60;109153;1272;22521;-84
2023/04/30 02:40:29;;;;;;;18.40;14.30;;;;;;;9.65;100.00;96519.79;109118;1273;23850;-83
2023/04/30 02:43:00;;;;;;;17.00;12.50;;;;;;;9.61;100.00;96522.79;109128;1270;25334;-84
2023/04/30 02:45:32;;;;;;;17.60;11.60;;;;;;;9.57;100.00;96523.90;109124;1273;25420;-84
2023/04/30 02:48:03;;;;;;;18.40;14.30;;;;;;;9.52;100.00;96526.36;109087;1273;22588;-84
2023/04/30 02:50:34;;;;;;;17.00;13.70;;;;;;;9.50;100.00;96527.96;109120;1270;22608;-84
2023/04/30 02:53:05;;;;;;;18.00;14.70;;;;;;;9.49;100.00;96532.89;109119;1267;22528;-84
2023/04/30 02:55:36;;;;;;;16.00;12.00;;;;;;;9.49;100.00;96534.38;109129;1268;22535;-84
2023/04/30 02:58:07;;;;;;;14.90;11.80;;;;;;;9.48;100.00;96533.48;109131;1272;25295;-84
2023/04/30 03:00:38;;;;;;;14.30;12.50;;;;;;;9.48;100.00;96530.63;109143;1273;23114;-84
2023/04/30 03:03:09;;;;;;;15.10;12.30;;;;;;;9.49;100.00;96535.91;109126;1273;22507;-84
2023/04/30 03:05:40;;;;;;;14.70;11.30;;;;;;;9.50;100.00;96533.84;109111;1273;22531;-83
2023/04/30 03:08:11;;;;;;;13.60;11.10;;;;;;;9.50;100.00;96537.44;109046;1268;23954;-84
2023/04/30 03:10:42;;;;;;;15.00;12.30;;;;;;;9.51;100.00;96540.40;109102;1272;22547;-84
2023/04/30 03:13:13;;;;;;;12.90;9.20;;;;;;;9.51;100.00;96538.59;109126;1267;22531;-84
2023/04/30 03:15:44;;;;;;;13.00;9.40;;;;;;;9.52;100.00;96535.73;109091;1273;24250;-84
2023/04/30 03:18:15;;;;;;;12.10;9.80;;;;;;;9.51;100.00;96545.42;109057;1267;22521;-84
2023/04/30 03:20:46;;;;;;;13.90;10.90;;;;;;;9.50;100.00;96544.48;109110;1266;22507;-84
2023/04/30 03:23:17;;;;;;;15.20;11.40;;;;;;;9.49;100.00;96543.80;109095;1265;22566;-83
2023/04/30 03:25:48;;;;;;;14.90;11.30;;;;;;;9.48;100.00;96548.89;109092;1268;22552;-84
2023/04/30 03:28:18;;;;;;;17.40;12.30;;;;;;;9.45;100.00;96548.59;109111;1272;24964;-83
2023/04/30 03:30:50;;;;;;;17.10;13.50;;;;;;;9.43;100.00;96550.29;109076;1268;22505;-84
2023/04/30 03:33:21;;;;;;;17.50;12.70;;;;;;;9.40;100.00;96554.78;109103;1272;22618;-84
2023/04/30 03:35:52;;;;;;;19.90;15.70;;;;;;;9.37;100.00;96556.29;109127;1273;22526;-83
2023/04/30 03:38:23;;;;;;;17.70;13.50;;;;;;;9.34;100.00;96552.91;109105;1272;22616;-84
2023/04/30 03:40:54;;;;;;;14.50;10.50;;;;;;;9.32;100.00;96553.77;109195;1272;24395;-84
2023/04/30 03:43:25;;;;;;;19.70;14.60;;;;;;;9.29;100.00;96553.26;109110;1265;23208;-84
2023/04/30 03:45:56;;;;;;;16.40;9.60;;;;;;;9.23;100.00;96559.41;109095;1265;22839;-83
2023/04/30 03:48:27;;;;;;;19.20;12.60;;;;;;;9.19;100.00;96565.30;109105;1271;22510;-84
2023/04/30 03:50:58;;;;;;;21.50;16.90;;;;;;;9.15;100.00;96572.08;109136;1265;24001;-84
2023/04/30 03:53:29;;;;;;;20.20;16.20;;;;;;;9.13;100.00;96574.67;109106;1273;25889;-84
2023/04/30 03:56:00;;;;;;;19.10;14.50;;;;;;;9.12;100.00;96578.74;109103;1273;22462;-83
2023/04/30 03:58:32;;;;;;;19.30;13.70;;;;;;;9.11;100.00;96580.44;109073;1273;24219;-83
2023/04/30 04:01:03;;;;;;;18.50;14.00;;;;;;;9.11;100.00;96580.34;109156;1268;22538;-84
2023/04/30 04:03:36;;;;;;;19.40;14.10;;;;;;;9.10;100.00;96585.36;109137;1273;22505;-84
2023/04/30 04:06:07;;;;;;;21.00;14.10;;;;;;;9.09;100.00;96581.73;109103;1267;23934;-84
2023/04/30 04:08:41;;;;;;;19.90;15.50;;;;;;;9.07;100.00;96590.56;109115;1273;22517;-83
2023/04/30 04:11:13;;;;;;;21.90;16.90;;;;;;;9.04;100.00;96592.27;109073;1267;22616;-83
2023/04/30 04:13:45;;;;;;;15.60;11.00;;;;;;;9.03;100.00;96595.45;109140;1273;22514;-83
2023/04/30 04:16:16;;;;;;;17.50;12.90;;;;;;;9.03;100.00;96592.80;109066;1273;22600;-83
2023/04/30 04:18:47;;;;;;;16.70;12.60;;;;;;;9.03;100.00;96589.69;109092;1273;22514;-84
2023/04/30 04:21:18;;;;;;;13.70;9.40;;;;;;;9.02;100.00;96597.52;109115;1273;23752;-84
2023/04/30 04:23:49;;;;;;;12.80;9.30;;;;;;;9.04;100.00;96604.27;109092;1273;22556;-84
2023/04/30 04:26:23;;;;;;;13.70;10.40;;;;;;;9.05;100.00;96610.77;109152;1261;23701;-84
2023/04/30 04:28:54;;;;;;;12.80;8.10;;;;;;;9.06;100.00;96610.04;109069;1273;22517;-84
2023/04/30 04:31:25;;;;;;;12.50;9.10;;;;;;;9.08;100.00;96602.67;109092;1273;25053;-84
2023/04/30 04:33:57;;;;;;;10.80;8.50;;;;;;;9.08;100.00;96609.77;109169;1270;22637;-83
2023/04/30 04:36:29;;;;;;;11.30;8.20;;;;;;;9.09;100.00;96605.77;109143;1273;22635;-84
2023/04/30 04:39:01;;;;;;;10.60;8.00;;;;;;;9.11;100.00;96607.84;109075;1270;24773;-83
2023/04/30 04:41:33;;;;;;;10.10;7.30;;;;;;;9.13;100.00;96608.89;109067;1273;23283;-84
2023/04/30 04:44:05;;;;;;;9.50;7.00;;;;;;;9.16;100.00;96615.98;109092;1273;22469;-84
2023/04/30 04:46:40;;;;;;;11.10;8.00;;;;;;;9.19;100.00;96617.41;109076;1273;23340;-83
2023/04/30 04:49:12;;;;;;;9.90;7.90;;;;;;;9.21;100.00;96621.73;109069;1265;22627;-84
2023/04/30 04:51:46;;;;;;;10.60;8.80;;;;;;;9.22;100.00;96629.93;109101;1273;22510;-83
2023/04/30 04:54:17;;;;;;;11.30;9.10;;;;;;;9.22;100.00;96632.52;109078;1254;22939;-83
2023/04/30 04:56:47;;;;;;;12.50;10.70;;;;;;;9.20;100.00;96633.17;109132;1273;22553;-83
2023/04/30 04:59:19;;;;;;;14.20;10.80;;;;;;;9.16;100.00;96637.58;109088;1270;24200;-83
2023/04/30 05:01:51;;;;;;;14.20;10.00;;;;;;;9.15;100.00;96641.23;109043;1273;22530;-83
2023/04/30 05:04:22;;;;;;;10.70;8.80;;;;;;;9.12;100.00;96640.95;109033;1270;22517;-84
2023/04/30 05:06:53;;;;;;;13.30;9.80;;;;;;;9.10;100.00;96638.58;109151;1273;25269;-83
2023/04/30 05:09:24;;;;;;;9.90;8.20;;;;;;;9.10;100.00;96647.41;109076;1273;22562;-83
2023/04/30 05:11:55;;;;;;;11.20;9.20;;;;;;;9.12;100.00;96647.40;109143;1272;22793;-83
2023/04/30 05:14:26;;;;;;;13.00;9.90;;;;;;;9.13;100.00;96647.08;109184;1272;22520;-84
2023/04/30 05:16:57;;;;;;;11.20;9.40;;;;;;;9.14;100.00;96654.17;109106;1273;23638;-83
2023/04/30 05:19:28;;;;;;;10.60;7.00;;;;;;;9.16;100.00;96652.06;109171;1259;22547;-84
2023/04/30 05:22:00;;;;;;;9.30;7.80;;;;;;;9.16;100.00;96658.25;109113;1269;22561;-83
2023/04/30 05:24:31;;;;;;;9.10;7.70;;;;;;;9.15;100.00;96666.14;109085;1273;22695;-83
2023/04/30 05:27:04;;;;;;;8.90;7.30;;;;;;;9.15;100.00;96663.91;109073;1268;22629;-83
2023/04/30 05:29:35;;;;;;;8.30;6.30;;;;;;;9.13;100.00;96672.31;109037;1273;22613;-83
2023/04/30 05:32:07;;;;;;;8.90;6.90;;;;;;;9.11;100.00;96673.90;109186;1272;22581;-83
2023/04/30 05:34:38;;;;;;;8.20;6.80;;;;;;;9.10;100.00;96680.05;109101;1268;22501;-83
2023/04/30 05:37:11;;;;;;;6.40;5.00;;;;;;;9.10;100.00;96685.39;109087;1268;22517;-83
2023/04/30 05:39:42;;;;;;;7.20;5.50;;;;;;;9.10;100.00;96685.55;109076;1273;22537;-83
2023/04/30 05:42:13;;;;;;;8.80;5.70;;;;;;;9.09;100.00;96689.25;109174;1272;25324;-83
2023/04/30 05:44:44;;;;;;;8.50;6.70;;;;;;;9.06;100.00;96692.48;109109;1254;22507;-83
2023/04/30 05:47:16;;;;;;;8.70;7.20;;;;;;;9.05;100.00;96694.08;109096;1266;22552;-83
2023/04/30 05:49:47;;;;;;;8.10;7.20;;;;;;;9.02;100.00;96697.84;109098;1268;22587;-83
2023/04/30 05:52:18;;;;;;;9.30;6.70;;;;;;;9.01;100.00;96702.27;109131;1273;22522;-83
2023/04/30 05:54:49;;;;;;;7.20;5.50;;;;;;;8.99;100.00;96706.64;109108;1267;22523;-83
2023/04/30 05:57:21;;;;;;;5.50;4.20;;;;;;;8.95;100.00;96704.34;109209;1265;22631;-83
2023/04/30 05:59:52;;;;;;;7.10;5.70;;;;;;;8.94;100.00;96716.77;109125;1265;25414;-83
2023/04/30 06:02:23;;;;;;;4.40;3.60;;;;;;;8.92;100.00;96725.27;109136;1270;25064;-83
2023/04/30 06:04:54;;;;;;;4.90;4.40;;;;;;;8.92;100.00;96727.55;109109;1270;25328;-83
2023/04/30 06:07:26;;;;;;;4.70;4.20;;;;;;;8.88;100.00;96728.14;109185;1268;23773;-83
2023/04/30 06:09:57;;;;;;;6.10;5.50;;;;;;;8.82;100.00;96727.54;109181;1254;22603;-83
2023/04/30 06:12:29;;;;;;;6.10;4.20;;;;;;;8.75;100.00;96721.77;109095;1265;23739;-82
2023/04/30 06:15:00;;;;;;;6.90;6.00;;;;;;;8.65;100.00;96741.96;109144;1261;22694;-83
2023/04/30 06:17:32;;;;;;;5.30;4.40;;;;;;;8.58;100.00;96737.40;109143;1273;22506;-82
2023/04/30 06:20:05;;;;;;;8.70;7.30;;;;;;;8.44;100.00;96747.30;109054;1273;22555;-82
2023/04/30 06:22:37;;;;;;;9.10;7.40;;;;;;;8.36;100.00;96754.41;109118;1273;25441;-83
2023/04/30 06:25:10;;;;;;;10.90;9.30;;;;;;;8.29;100.00;96755.10;109132;1264;22513;-83
2023/04/30 06:27:42;;;;;;;10.90;9.80;;;;;;;8.24;100.00;96752.81;109125;1273;25221;-83
2023/04/30 06:30:14;;;;;;;11.90;10.70;;;;;;;8.23;100.00;96762.27;109184;1272;23230;-83
2023/04/30 06:32:46;;;;;;;11.00;9.80;;;;;;;8.21;100.00;96757.25;109158;1268;25282;-83
2023/04/30 06:35:17;;;;;;;10.90;9.80;;;;;;;8.11;100.00;96771.26;109117;1250;22686;-83
2023/04/30 06:37:48;;;;;;;10.50;9.10;;;;;;;8.05;100.00;96772.98;109093;1268;22931;-84
2023/04/30 06:40:20;;;;;;;11.00;9.80;;;;;;;8.01;100.00;96774.37;109151;1272;22525;-83
2023/04/30 06:42:53;;;;;;;12.30;10.80;;;;;;;7.94;100.00;96780.20;109190;1272;24298;-83
2023/04/30 06:45:24;;;;;;;10.10;8.90;;;;;;;7.90;100.00;96786.80;109126;1273;23807;-83
2023/04/30 06:47:56;;;;;;;15.10;9.50;;;;;;;7.85;100.00;96781.42;109097;1273;22652;-83
2023/04/30 06:50:27;;;;;;;10.50;9.00;;;;;;;7.80;100.00;96787.84;109108;1272;22520;-83
2023/04/30 06:52:59;;;;;;;13.80;12.20;;;;;;;7.78;100.00;96793.48;109074;1268;22539;-83
2023/04/30 06:55:30;;;;;;;14.80;11.50;;;;;;;7.81;100.00;96804.52;109169;1273;22620;-83
2023/04/30 06:58:01;;;;;;;13.30;10.80;;;;;;;7.81;100.00;96807.80;109115;1273;24213;-84
2023/04/30 07:00:32;;;;;;;12.70;11.40;;;;;;;7.81;100.00;96805.63;109115;1273;22563;-83
2023/04/30 07:03:03;;;;;;;14.60;11.70;;;;;;;7.84;100.00;96808.50;109117;1273;23437;-84
2023/04/30 07:05:35;;;;;;;13.00;11.60;;;;;;;7.82;100.00;96813.20;109092;1273;25437;-84
2023/04/30 07:08:07;;;;;;;12.40;10.60;;;;;;;7.77;100.00;96808.63;109090;1273;22630;-83
2023/04/30 07:10:38;;;;;;;15.50;12.90;;;;;;;7.67;100.00;96818.85;109076;1273;23159;-83
2023/04/30 07:13:09;;;;;;;13.20;11.70;;;;;;;7.61;100.00;96826.58;109123;1273;22514;-84
2023/04/30 07:15:41;;;;;;;14.60;11.10;;;;;;;7.59;100.00;96826.70;109099;1257;22550;-83
2023/04/30 07:18:12;;;;;;;18.70;13.80;;;;;;;7.54;100.00;96825.73;109119;1273;22579;-83
2023/04/30 07:20:44;;;;;;;11.20;8.30;;;;;;;7.53;100.00;96824.24;109126;1268;22514;-83
2023/04/30 07:23:16;;;;;;;13.90;11.50;;;;;;;7.50;100.00;96824.23;109133;1250;22557;-83
2023/04/30 07:25:47;;;;;;;14.90;11.30;;;;;;;7.48;100.00;96829.64;109116;1273;22534;-83
2023/04/30 07:28:18;;;;;;;16.30;13.10;;;;;;;7.43;100.00;96835.34;109076;1273;22568;-83
2023/04/30 07:30:50;;;;;;;15.10;12.70;;;;;;;7.38;100.00;96837.00;109175;1272;22637;-83
2023/04/30 07:33:21;;;;;;;16.30;11.60;;;;;;;7.30;100.00;96830.45;109127;1265;22529;-84
2023/04/30 07:35:53;;;;;;;13.50;9.70;;;;;;;7.23;100.00;96842.41;109189;1272;22507;-84
2023/04/30 07:38:24;;;;;;;19.20;11.70;;;;;;;7.19;100.00;96844.92;109130;1273;22542;-84
2023/04/30 07:40:56;;;;;;;12.90;10.50;;;;;;;7.17;100.00;96839.33;109120;1273;25314;-84
2023/04/30 07:43:28;;;;;;;14.30;12.30;;;;;;;7.16;100.00;96851.89;109128;1273;25412;-84
2023/04/30 07:45:59;;;;;;;14.30;11.90;;;;;;;7.18;100.00;96853.39;109104;1252;22546;-84
2023/04/30 07:48:30;;;;;;;14.80;13.20;;;;;;;7.19;100.00;96859.09;109059;1273;23763;-84
2023/04/30 07:51:03;;;;;;;16.50;13.60;;;;;;;7.19;100.00;96861.79;109110;1273;22523;-84
2023/04/30 07:53:34;;;;;;;12.20;8.80;;;;;;;7.24;100.00;96864.73;109181;1271;22561;-84
2023/04/30 07:56:07;;;;;;;14.90;13.30;;;;;;;7.21;100.00;96865.65;109132;1266;22664;-84
2023/04/30 07:58:38;;;;;;;13.50;11.70;;;;;;;7.20;100.00;96874.92;109119;1249;25934;-84
2023/04/30 08:01:09;;;;;;;13.20;10.50;;;;;;;7.21;100.00;96869.98;109140;1270;22451;-83
2023/04/30 08:03:40;;;;;;;15.50;10.40;;;;;;;7.16;100.00;96876.14;109115;1267;23213;-84
2023/04/30 08:06:12;;;;;;;15.20;12.80;;;;;;;7.10;100.00;96875.41;109127;1264;22489;-84
2023/04/30 08:08:43;;;;;;;13.50;11.60;;;;;;;7.09;100.00;96882.09;109132;1273;24479;-83
2023/04/30 08:11:15;;;;;;;17.50;12.60;;;;;;;7.11;100.00;96889.55;109198;1268;22526;-84
2023/04/30 08:13:46;;;;;;;15.70;11.30;;;;;;;7.19;100.00;96887.94;109080;1272;22691;-84
2023/04/30 08:16:18;;;;;;;13.70;11.90;;;;;;;7.28;100.00;96882.23;109105;1273;22516;-84
2023/04/30 08:18:49;;;;;;;14.20;11.50;;;;;;;7.40;100.00;96884.23;109110;1266;24057;-84
2023/04/30 08:21:20;;;;;;;13.30;11.60;;;;;;;7.44;100.00;96885.14;109163;1272;22526;-84
2023/04/30 08:23:51;;;;;;;15.20;12.10;;;;;;;7.48;100.00;96895.95;109128;1272;22511;-84
2023/04/30 08:26:22;;;;;;;14.30;11.30;;;;;;;7.63;100.00;96889.54;109131;1268;22547;-84
2023/04/30 08:28:53;;;;;;;15.00;11.00;;;;;;;7.76;100.00;96893.60;109214;1268;26163;-84
2023/04/30 08:31:24;;;;;;;15.10;12.20;;;;;;;7.87;99.95;96896.89;109121;1273;22682;-84
2023/04/30 08:33:55;;;;;;;13.40;12.00;;;;;;;8.04;99.99;96898.16;109122;1273;22538;-84
2023/04/30 08:36:26;;;;;;;14.70;13.10;;;;;;;8.27;99.86;96898.52;109100;1273;22468;-84
2023/04/30 08:38:57;;;;;;;16.20;12.70;;;;;;;8.45;99.45;96902.81;109114;1273;24590;-84
2023/04/30 08:41:32;;;;;;;15.60;11.60;;;;;;;8.56;98.80;96901.74;109139;1269;22562;-84
2023/04/30 08:44:04;;;;;;;13.40;11.50;;;;;;;8.64;98.11;96904.23;109100;1273;23139;-83
2023/04/30 08:46:38;;;;;;;15.40;12.60;;;;;;;8.76;98.08;96910.04;109135;1268;22539;-83
2023/04/30 08:49:10;;;;;;;16.80;13.30;;;;;;;8.88;97.44;96917.06;109056;1273;22487;-83
2023/04/30 08:51:41;;;;;;;16.00;12.30;;;;;;;8.92;96.12;96919.88;109118;1273;22522;-84
2023/04/30 08:54:14;;;;;;;12.50;10.70;;;;;;;9.01;96.05;96923.12;109131;1272;23252;-84
2023/04/30 08:56:46;;;;;;;12.40;10.50;;;;;;;9.02;93.69;96922.51;109130;1273;24179;-83
2023/04/30 08:59:17;;;;;;;12.60;11.20;;;;;;;9.03;93.53;96930.02;109061;1272;22526;-83
2023/04/30 09:01:49;;;;;;;15.00;11.40;;;;;;;9.08;94.04;96933.61;109137;1271;22568;-83
2023/04/30 09:04:20;;;;;;;14.00;11.20;;;;;;;9.29;94.06;96931.45;109110;1273;22766;-83
2023/04/30 09:06:57;;;;;;;14.60;11.80;;;;;;;9.34;93.00;96933.00;109077;1273;25217;-83
2023/04/30 09:09:37;;;;;;;14.50;11.90;;;;;;;9.35;91.72;96931.41;109105;1273;22512;-84
2023/04/30 09:12:18;;;;;;;14.50;11.80;;;;;;;9.34;91.25;96934.64;109138;1273;22609;-83
2023/04/30 09:15:03;;;;;;;14.50;11.30;;;;;;;9.47;91.81;96929.62;109128;1268;22592;-83
2023/04/30 09:17:35;;;;;;;12.40;10.70;;;;;;;9.53;90.73;96935.77;109119;1273;22551;-84
2023/04/30 09:20:11;;;;;;;14.70;12.00;;;;;;;9.59;90.79;96938.74;109146;1271;22518;-83
2023/04/30 09:22:43;;;;;;;12.80;9.60;;;;;;;9.51;87.97;96931.70;109765;1273;22399;-83
2023/04/30 09:25:15;;;;;;;14.20;10.40;;;;;;;9.41;87.71;96931.89;109441;1271;22542;-83
2023/04/30 09:27:46;;;;;;;12.80;11.20;;;;;;;9.42;87.65;96930.67;109145;1267;22540;-83
2023/04/30 09:30:32;;;;;;;14.20;11.10;;;;;;;9.48;88.17;96920.27;109188;1268;23926;-83
2023/04/30 09:33:03;;;;;;;12.80;10.10;;;;;;;9.54;87.26;96926.60;109144;1249;22521;-83
2023/04/30 09:35:37;;;;;;;16.50;11.10;;;;;;;9.65;87.71;96922.98;109143;1273;24242;-83
2023/04/30 09:38:25;;;;;;;13.70;11.60;;;;;;;9.76;87.07;96925.79;109158;1272;22560;-83
2023/04/30 09:40:57;;;;;;;14.20;11.80;;;;;;;9.80;86.56;96932.20;109087;1273;22527;-84
2023/04/30 09:43:28;;;;;;;15.80;11.10;;;;;;;9.86;85.54;96928.28;109125;1271;22506;-83
2023/04/30 09:46:01;;;;;;;12.00;10.60;;;;;;;9.84;84.32;96927.05;109070;1266;22549;-84
2023/04/30 09:48:32;;;;;;;11.00;8.30;;;;;;;9.92;84.75;96932.62;109128;1268;24180;-83
2023/04/30 09:51:05;;;;;;;13.50;10.60;;;;;;;10.20;84.72;96923.23;109103;1251;22551;-84
2023/04/30 09:53:38;;;;;;;13.60;10.10;;;;;;;10.76;84.70;96924.95;109079;1273;22615;-84
2023/04/30 09:56:13;;;;;;;11.50;9.60;;;;;;;11.10;81.95;96922.94;109112;1273;22516;-84
2023/04/30 09:58:48;;;;;;;12.90;9.30;;;;;;;11.07;80.31;96924.59;109050;1273;27251;-83
2023/04/30 10:01:19;;;;;;;14.50;10.30;;;;;;;10.85;79.26;96917.54;109169;1266;22525;-84
2023/04/30 10:03:51;;;;;;;14.80;9.80;;;;;;;10.64;79.51;96923.51;109084;1273;22629;-84
2023/04/30 10:06:23;;;;;;;12.60;9.80;;;;;;;10.72;80.04;96926.13;109124;1268;22560;-84
2023/04/30 10:08:56;;;;;;;12.00;9.60;;;;;;;11.08;81.62;96919.39;109155;1273;22704;-83
2023/04/30 10:11:32;;;;;;;14.20;8.70;;;;;;;11.27;78.04;96909.67;109121;1273;22497;-83
2023/04/30 10:14:08;;;;;;;10.70;8.50;;;;;;;11.24;76.82;96915.11;109135;1273;24159;-84
2023/04/30 10:16:49;;;;;;;9.60;7.40;;;;;;;11.53;77.60;96903.30;109116;1273;22519;-83
2023/04/30 10:19:23;;;;;;;9.30;8.30;;;;;;;11.64;76.14;96904.70;109137;1273;22536;-83
2023/04/30 10:21:55;;;;;;;9.40;6.50;;;;;;;11.96;77.86;96903.95;109106;1273;22528;-84
2023/04/30 10:24:27;;;;;;;9.70;8.20;;;;;;;12.03;75.56;96903.89;109070;1266;22546;-84
2023/04/30 10:26:58;;;;;;;8.80;6.70;;;;;;;11.87;75.94;96905.36;109090;1273;22539;-84
2023/04/30 10:29:30;;;;;;;9.20;7.70;;;;;;;11.81;74.17;96905.66;109077;1273;25229;-84
2023/04/30 10:32:03;;;;;;;10.80;8.80;;;;;;;11.52;73.81;96906.50;109205;1266;22546;-84
2023/04/30 10:34:44;;;;;;;9.90;7.80;;;;;;;11.49;75.17;96905.39;109125;1270;22520;-84
2023/04/30 10:37:22;;;;;;;10.20;7.70;;;;;;;11.87;75.10;96900.14;109130;1271;22603;-84
2023/04/30 10:39:54;;;;;;;8.00;6.10;;;;;;;12.04;72.90;96905.20;109062;1273;22511;-83
2023/04/30 10:42:25;;;;;;;9.80;6.90;;;;;;;11.96;70.84;96899.74;109151;1269;22562;-83
2023/04/30 10:44:57;;;;;;;10.00;6.70;;;;;;;11.85;71.11;96907.29;109094;1263;22515;-84
2023/04/30 10:47:31;;;;;;;10.90;7.70;;;;;;;12.09;71.53;96897.77;109099;1273;22515;-84
2023/04/30 10:50:08;;;;;;;9.30;6.30;;;;;;;12.40;71.77;96900.06;109042;1274;22535;-84
2023/04/30 10:52:40;;;;;;;10.40;6.10;;;;;;;12.62;70.53;96893.90;109040;1273;23655;-83
2023/04/30 10:55:17;;;;;;;9.70;7.30;;;;;;;12.48;69.80;96895.14;109091;1273;22568;-83
2023/04/30 10:57:51;;;;;;;9.40;6.60;;;;;;;12.39;71.61;96897.09;109034;1273;22576;-84
2023/04/30 11:00:27;;;;;;;8.30;6.30;;;;;;;12.46;70.90;96893.02;109070;1274;23921;-83
2023/04/30 11:03:06;;;;;;;9.20;6.20;;;;;;;12.55;68.19;96884.64;109054;1265;24167;-83
2023/04/30 11:05:38;;;;;;;7.60;4.30;;;;;;;12.73;66.63;96884.64;109049;1274;22496;-83
2023/04/30 11:08:13;;;;;;;7.80;5.60;;;;;;;12.91;64.98;96889.50;109071;1267;24205;-83
2023/04/30 11:11:00;;;;;;;7.00;5.90;;;;;;;12.91;64.97;96890.90;109129;1273;23800;-84
2023/04/30 11:13:41;;;;;;;9.20;6.00;;;;;;;12.76;64.63;96884.98;109126;1270;22675;-84
2023/04/30 11:16:13;;;;;;;8.40;5.60;;;;;;;12.52;64.35;96885.58;109115;1266;22568;-84
2023/04/30 11:18:47;;;;;;;9.40;5.60;;;;;;;12.34;63.74;96882.05;109122;1273;22800;-84
2023/04/30 11:21:20;;;;;;;7.20;5.70;;;;;;;12.30;65.13;96881.88;109102;1271;22523;-84
2023/04/30 11:23:53;;;;;;;9.10;6.00;;;;;;;12.58;65.68;96877.25;109112;1273;24174;-84
2023/04/30 11:26:26;;;;;;;8.90;5.20;;;;;;;12.64;63.60;96875.86;109166;1272;22618;-84
2023/04/30 11:28:59;;;;;;;7.10;4.40;;;;;;;12.55;63.63;96885.29;109104;1269;22650;-84
2023/04/30 11:31:36;;;;;;;5.10;3.90;;;;;;;12.82;64.57;96884.05;109179;1268;23406;-84
2023/04/30 11:34:09;;;;;;;7.70;4.70;;;;;;;13.07;62.10;96885.15;109224;1272;22591;-84
2023/04/30 11:36:40;;;;;;;6.70;4.60;;;;;;;13.41;63.89;96886.52;109092;1265;24192;-84
2023/04/30 11:39:13;;;;;;;8.00;4.80;;;;;;;13.82;63.68;96889.19;109141;1266;22514;-84
2023/04/30 11:41:45;;;;;;;9.20;5.10;;;;;;;13.80;61.97;96889.06;109111;1269;26121;-84